KSFB/SFB METAR and TAF weather

Enter ICAO airport designator
Station Type Date Time Source
KSFB METAR 2021/01/27 13:53 UTC NOAA

KSFB 271353Z 21006KT 5SM BR OVC004 19/18 A3005 RMK AO2 SLP174 T01890178


Station Type Date Time Source
KSFB Decoded METAR 2021/01/27 13:53 UTC NOAA

ORLANDO SANFORD AIRPORT, FL, United States (KSFB) 28-47N 081-15W
Jan 27, 2021 - 08:53 AM EST / 2021.01.27 1353 UTC
Wind: from the SSW (210 degrees) at 7 MPH (6 KT):0
Visibility: 5 mile(s):0
Sky conditions: overcast
Weather: mist
Temperature: 66.0 F (18.9 C)
Dew Point: 64.0 F (17.8 C)
Relative Humidity: 93%
Pressure (altimeter): 30.05 in. Hg (1017 hPa)
ob: KSFB 271353Z 21006KT 5SM BR OVC004 19/18 A3005 RMK AO2 SLP174 T01890178
cycle: 14

Station Type Date Time Source
KSFB TAF 2021/01/27 12:30 UTC NOAA

TAF KSFB 271127Z 2712/2812 18006KT 6SM BR SCT006
TEMPO 2712/2714 2SM BR BKN006
FM271400 20006KT 3SM BR BKN006
TEMPO 2714/2716 6SM BR SCT006 BKN012
FM271600 22006KT P6SM SCT012 BKN025
TEMPO 2716/2718 SCT025
FM271800 24010KT P6SM SCT035 SCT250

Example: see airport list